Mars Hill, Indiana
Current Conditions -  °F | °C
As of 10:54 PM on Thursday 18 Dec 2014 (Local Time) from KIND Reporting Station
Scattered Clouds Scattered Clouds  
Wind Chill: 18°   Ceiling: Unl
Heat Index: 24°   Visibility: 9mi
Dew Point: 20°   Wind: 5mph
Humidity: 84%   Direction: 290°WNW
Pressure: 30.25"   Gusts: NA
Location:  39.7251°N, 86.264°W
Report Text: KIND 190354Z 29004KT 9SM FEW014 SCT230 M04/M07 A3025 RMK AO2 SLP253 T10441067
Loading
Personal Weather Stations






























Interactive Weather Map New forecast layout! Learn more

10-Day Weather Forecast

Advertisements
Track Severe Weather on mobile